sensor_id;sensor_type;location;lat;lon;timestamp;pressure;altitude;pressure_sealevel;temperature;humidity
12785;BME280;6456;42.680;23.260;2022-10-23T00:00:14;95147.63;;;12.62;90.08
12785;BME280;6456;42.680;23.260;2022-10-23T00:02:41;95149.25;;;12.63;89.91
12785;BME280;6456;42.680;23.260;2022-10-23T00:05:08;95165.44;;;12.73;89.81
12785;BME280;6456;42.680;23.260;2022-10-23T00:07:35;95142.44;;;12.49;90.51
12785;BME280;6456;42.680;23.260;2022-10-23T00:10:04;95171.56;;;12.67;90.14
12785;BME280;6456;42.680;23.260;2022-10-23T00:12:30;95095.09;;;12.10;90.20
12785;BME280;6456;42.680;23.260;2022-10-23T00:14:57;95167.09;;;12.68;90.81
12785;BME280;6456;42.680;23.260;2022-10-23T00:17:24;95159.81;;;12.63;91.50
12785;BME280;6456;42.680;23.260;2022-10-23T00:19:51;95057.81;;;12.06;91.37
12785;BME280;6456;42.680;23.260;2022-10-23T00:22:18;95131.53;;;12.70;91.50
12785;BME280;6456;42.680;23.260;2022-10-23T00:24:45;95137.44;;;12.72;91.36
12785;BME280;6456;42.680;23.260;2022-10-23T00:27:13;95130.63;;;12.52;90.77
12785;BME280;6456;42.680;23.260;2022-10-23T00:29:40;95065.50;;;12.08;90.92
12785;BME280;6456;42.680;23.260;2022-10-23T00:32:06;95093.03;;;12.18;90.82
12785;BME280;6456;42.680;23.260;2022-10-23T00:34:33;95107.69;;;12.08;91.40
12785;BME280;6456;42.680;23.260;2022-10-23T00:37:00;95167.59;;;12.45;91.30
12785;BME280;6456;42.680;23.260;2022-10-23T00:39:27;95168.47;;;12.39;91.81
12785;BME280;6456;42.680;23.260;2022-10-23T00:41:54;95090.31;;;11.94;92.05
12785;BME280;6456;42.680;23.260;2022-10-23T00:47:26;95131.94;;;12.36;92.54
12785;BME280;6456;42.680;23.260;2022-10-23T00:49:52;95099.56;;;12.16;92.73
12785;BME280;6456;42.680;23.260;2022-10-23T00:52:19;95121.78;;;12.33;91.95
12785;BME280;6456;42.680;23.260;2022-10-23T00:54:46;95105.59;;;12.30;91.11
12785;BME280;6456;42.680;23.260;2022-10-23T00:57:14;95138.75;;;12.50;90.75
12785;BME280;6456;42.680;23.260;2022-10-23T00:59:41;95079.28;;;12.10;90.75
12785;BME280;6456;42.680;23.260;2022-10-23T01:02:08;95131.88;;;12.43;91.43
12785;BME280;6456;42.680;23.260;2022-10-23T01:04:37;95075.88;;;12.03;91.91
12785;BME280;6456;42.680;23.260;2022-10-23T01:07:08;95120.13;;;12.39;92.07
12785;BME280;6456;42.680;23.260;2022-10-23T01:09:42;95124.13;;;12.48;92.09
12785;BME280;6456;42.680;23.260;2022-10-23T01:12:18;95128.19;;;12.50;92.50
12785;BME280;6456;42.680;23.260;2022-10-23T01:14:57;95104.00;;;12.22;92.46
12785;BME280;6456;42.680;23.260;2022-10-23T01:17:31;95089.72;;;11.85;93.11
12785;BME280;6456;42.680;23.260;2022-10-23T01:20:13;95164.94;;;12.01;94.77
12785;BME280;6456;42.680;23.260;2022-10-23T01:23:00;95175.53;;;11.88;95.15
12785;BME280;6456;42.680;23.260;2022-10-23T01:25:50;95117.41;;;11.43;95.12
12785;BME280;6456;42.680;23.260;2022-10-23T01:28:25;95182.25;;;11.71;96.01
12785;BME280;6456;42.680;23.260;2022-10-23T01:30:57;95134.06;;;11.24;97.19
12785;BME280;6456;42.680;23.260;2022-10-23T01:33:27;95207.19;;;11.62;97.66
12785;BME280;6456;42.680;23.260;2022-10-23T01:36:00;95218.94;;;11.59;97.33
12785;BME280;6456;42.680;23.260;2022-10-23T01:38:34;95221.78;;;11.64;97.62
12785;BME280;6456;42.680;23.260;2022-10-23T01:41:09;95203.97;;;11.59;97.50
12785;BME280;6456;42.680;23.260;2022-10-23T01:43:43;95234.38;;;11.82;98.25
12785;BME280;6456;42.680;23.260;2022-10-23T01:46:13;95232.34;;;11.84;98.76
12785;BME280;6456;42.680;23.260;2022-10-23T01:48:45;95177.41;;;11.54;98.98
12785;BME280;6456;42.680;23.260;2022-10-23T01:51:16;95215.72;;;11.90;99.43
12785;BME280;6456;42.680;23.260;2022-10-23T01:53:46;95213.28;;;11.95;99.54
12785;BME280;6456;42.680;23.260;2022-10-23T01:56:17;95191.34;;;11.88;99.40
12785;BME280;6456;42.680;23.260;2022-10-23T01:58:48;95199.63;;;11.98;99.77
12785;BME280;6456;42.680;23.260;2022-10-23T02:01:19;95196.59;;;12.01;99.60
12785;BME280;6456;42.680;23.260;2022-10-23T02:03:48;95198.00;;;12.03;99.53
12785;BME280;6456;42.680;23.260;2022-10-23T02:06:15;95182.84;;;11.73;100.00
12785;BME280;6456;42.680;23.260;2022-10-23T02:08:42;95165.44;;;11.52;99.85
12785;BME280;6456;42.680;23.260;2022-10-23T02:11:12;95220.97;;;11.83;100.00
12785;BME280;6456;42.680;23.260;2022-10-23T02:13:44;95217.75;;;11.75;100.00
12785;BME280;6456;42.680;23.260;2022-10-23T02:16:22;95161.59;;;11.28;100.00
12785;BME280;6456;42.680;23.260;2022-10-23T02:18:56;95233.56;;;11.62;100.00
12785;BME280;6456;42.680;23.260;2022-10-23T02:21:30;95238.41;;;11.65;100.00
12785;BME280;6456;42.680;23.260;2022-10-23T02:24:02;95155.09;;;11.18;100.00
12785;BME280;6456;42.680;23.260;2022-10-23T02:26:33;95252.03;;;11.81;100.00
12785;BME280;6456;42.680;23.260;2022-10-23T02:29:07;95253.03;;;11.87;100.00
12785;BME280;6456;42.680;23.260;2022-10-23T02:31:37;95200.88;;;11.63;100.00
12785;BME280;6456;42.680;23.260;2022-10-23T02:34:04;95201.31;;;11.59;100.00
12785;BME280;6456;42.680;23.260;2022-10-23T02:36:31;95171.91;;;11.43;100.00
12785;BME280;6456;42.680;23.260;2022-10-23T02:38:57;95220.19;;;11.70;100.00
12785;BME280;6456;42.680;23.260;2022-10-23T02:41:32;95252.63;;;11.90;100.00
12785;BME280;6456;42.680;23.260;2022-10-23T02:47:08;95164.63;;;11.45;100.00
12785;BME280;6456;42.680;23.260;2022-10-23T02:49:44;95249.16;;;11.96;100.00
12785;BME280;6456;42.680;23.260;2022-10-23T02:52:19;95254.22;;;12.04;100.00
12785;BME280;6456;42.680;23.260;2022-10-23T02:55:02;95238.41;;;12.04;100.00
12785;BME280;6456;42.680;23.260;2022-10-23T02:57:32;95195.63;;;11.76;100.00
12785;BME280;6456;42.680;23.260;2022-10-23T03:00:05;95251.38;;;12.12;100.00
12785;BME280;6456;42.680;23.260;2022-10-23T03:02:37;95181.25;;;11.72;99.98
12785;BME280;6456;42.680;23.260;2022-10-23T03:05:09;95194.63;;;11.77;99.66
12785;BME280;6456;42.680;23.260;2022-10-23T03:07:38;95206.97;;;11.83;99.14
12785;BME280;6456;42.680;23.260;2022-10-23T03:10:07;95259.66;;;12.22;98.42
12785;BME280;6456;42.680;23.260;2022-10-23T03:12:34;95251.31;;;12.25;98.26
12785;BME280;6456;42.680;23.260;2022-10-23T03:15:01;95254.97;;;12.31;97.53
12785;BME280;6456;42.680;23.260;2022-10-23T03:17:28;95188.53;;;11.89;97.16
12785;BME280;6456;42.680;23.260;2022-10-23T03:19:57;95212.41;;;12.07;96.40
12785;BME280;6456;42.680;23.260;2022-10-23T03:22:24;95241.97;;;12.29;94.94
12785;BME280;6456;42.680;23.260;2022-10-23T03:24:51;95262.22;;;12.48;92.52
12785;BME280;6456;42.680;23.260;2022-10-23T03:27:18;95194.94;;;12.13;87.10
12785;BME280;6456;42.680;23.260;2022-10-23T03:29:45;95204.81;;;12.37;84.30
12785;BME280;6456;42.680;23.260;2022-10-23T03:32:12;95200.69;;;12.48;81.95
12785;BME280;6456;42.680;23.260;2022-10-23T03:34:38;95217.88;;;12.70;81.90
12785;BME280;6456;42.680;23.260;2022-10-23T03:37:07;95250.06;;;12.92;80.33
12785;BME280;6456;42.680;23.260;2022-10-23T03:39:34;95255.91;;;13.07;80.14
12785;BME280;6456;42.680;23.260;2022-10-23T03:42:00;95229.69;;;12.99;79.17
12785;BME280;6456;42.680;23.260;2022-10-23T03:44:27;95233.09;;;13.12;75.28
12785;BME280;6456;42.680;23.260;2022-10-23T03:46:56;95226.31;;;13.23;73.75
12785;BME280;6456;42.680;23.260;2022-10-23T03:49:22;95227.50;;;13.27;72.46
12785;BME280;6456;42.680;23.260;2022-10-23T03:51:49;95245.22;;;13.51;71.48
12785;BME280;6456;42.680;23.260;2022-10-23T03:54:20;95286.69;;;13.82;71.28
12785;BME280;6456;42.680;23.260;2022-10-23T03:56:47;95236.84;;;13.54;70.60
12785;BME280;6456;42.680;23.260;2022-10-23T03:59:14;95284.84;;;13.82;69.96
12785;BME280;6456;42.680;23.260;2022-10-23T04:01:41;95288.69;;;13.86;68.63
12785;BME280;6456;42.680;23.260;2022-10-23T04:04:08;95310.09;;;14.03;68.77
12785;BME280;6456;42.680;23.260;2022-10-23T04:06:35;95242.25;;;13.66;68.03
12785;BME280;6456;42.680;23.260;2022-10-23T04:09:03;95319.41;;;14.12;67.18
12785;BME280;6456;42.680;23.260;2022-10-23T04:11:31;95311.97;;;14.21;66.21
12785;BME280;6456;42.680;23.260;2022-10-23T04:13:59;95283.63;;;14.03;66.39
12785;BME280;6456;42.680;23.260;2022-10-23T04:16:26;95239.88;;;13.82;65.96
12785;BME280;6456;42.680;23.260;2022-10-23T04:18:53;95311.22;;;14.38;66.27
12785;BME280;6456;42.680;23.260;2022-10-23T04:21:19;95309.97;;;14.41;65.63
12785;BME280;6456;42.680;23.260;2022-10-23T04:23:46;95278.78;;;14.25;64.69
12785;BME280;6456;42.680;23.260;2022-10-23T04:26:13;95308.69;;;14.50;63.71
12785;BME280;6456;42.680;23.260;2022-10-23T04:28:41;95295.13;;;14.40;62.96
12785;BME280;6456;42.680;23.260;2022-10-23T04:31:11;95313.69;;;14.58;62.17
12785;BME280;6456;42.680;23.260;2022-10-23T04:33:38;95315.69;;;14.62;61.70
12785;BME280;6456;42.680;23.260;2022-10-23T04:36:05;95245.97;;;14.26;61.73
12785;BME280;6456;42.680;23.260;2022-10-23T04:38:32;95307.06;;;14.67;61.11
12785;BME280;6456;42.680;23.260;2022-10-23T04:40:59;95300.72;;;14.68;60.98
12785;BME280;6456;42.680;23.260;2022-10-23T04:43:26;95300.53;;;14.69;60.65
12785;BME280;6456;42.680;23.260;2022-10-23T04:45:54;95241.84;;;14.30;60.24
12785;BME280;6456;42.680;23.260;2022-10-23T04:48:20;95301.34;;;14.70;60.64
12785;BME280;6456;42.680;23.260;2022-10-23T04:50:54;95294.50;;;14.62;60.67
12785;BME280;6456;42.680;23.260;2022-10-23T04:53:22;95310.31;;;14.69;59.65
12785;BME280;6456;42.680;23.260;2022-10-23T04:55:49;95275.06;;;14.50;58.93
12785;BME280;6456;42.680;23.260;2022-10-23T04:58:16;95311.47;;;14.73;59.18
12785;BME280;6456;42.680;23.260;2022-10-23T05:00:43;95267.41;;;14.42;59.07
12785;BME280;6456;42.680;23.260;2022-10-23T05:03:12;95314.25;;;14.78;58.83
12785;BME280;6456;42.680;23.260;2022-10-23T05:05:40;95318.09;;;14.82;59.21
12785;BME280;6456;42.680;23.260;2022-10-23T05:08:07;95272.09;;;14.58;59.93
12785;BME280;6456;42.680;23.260;2022-10-23T05:10:35;95323.56;;;14.87;60.94
12785;BME280;6456;42.680;23.260;2022-10-23T05:13:02;95324.13;;;14.89;61.00
12785;BME280;6456;42.680;23.260;2022-10-23T05:15:29;95315.03;;;14.85;61.22
12785;BME280;6456;42.680;23.260;2022-10-23T05:17:59;95322.44;;;14.95;60.57
12785;BME280;6456;42.680;23.260;2022-10-23T05:20:33;95328.91;;;14.99;59.89
12785;BME280;6456;42.680;23.260;2022-10-23T05:23:01;95330.16;;;14.96;60.66
12785;BME280;6456;42.680;23.260;2022-10-23T05:25:33;95322.66;;;14.93;61.49
12785;BME280;6456;42.680;23.260;2022-10-23T05:28:01;95333.91;;;15.07;61.63
12785;BME280;6456;42.680;23.260;2022-10-23T05:30:27;95273.66;;;14.66;62.73
12785;BME280;6456;42.680;23.260;2022-10-23T05:32:54;95346.06;;;15.14;65.08
12785;BME280;6456;42.680;23.260;2022-10-23T05:35:22;95345.63;;;15.17;66.06
12785;BME280;6456;42.680;23.260;2022-10-23T05:37:51;95315.66;;;14.99;66.20
12785;BME280;6456;42.680;23.260;2022-10-23T05:40:19;95307.94;;;14.97;65.93
12785;BME280;6456;42.680;23.260;2022-10-23T05:42:46;95362.38;;;15.29;66.26
12785;BME280;6456;42.680;23.260;2022-10-23T05:45:13;95359.00;;;15.22;67.91
12785;BME280;6456;42.680;23.260;2022-10-23T05:47:42;95321.78;;;14.99;70.07
12785;BME280;6456;42.680;23.260;2022-10-23T05:50:10;95386.25;;;15.48;70.47
12785;BME280;6456;42.680;23.260;2022-10-23T05:52:37;95353.53;;;15.35;70.58
12785;BME280;6456;42.680;23.260;2022-10-23T05:55:06;95365.69;;;15.43;71.10
12785;BME280;6456;42.680;23.260;2022-10-23T05:57:33;95386.06;;;15.61;72.72
12785;BME280;6456;42.680;23.260;2022-10-23T06:00:00;95331.59;;;15.28;73.95
12785;BME280;6456;42.680;23.260;2022-10-23T06:02:27;95397.41;;;15.68;75.62
12785;BME280;6456;42.680;23.260;2022-10-23T06:04:54;95406.09;;;15.75;77.38
12785;BME280;6456;42.680;23.260;2022-10-23T06:07:22;95415.78;;;15.81;77.71
12785;BME280;6456;42.680;23.260;2022-10-23T06:09:50;95363.69;;;15.57;78.65
12785;BME280;6456;42.680;23.260;2022-10-23T06:12:18;95389.25;;;15.81;79.02
12785;BME280;6456;42.680;23.260;2022-10-23T06:14:45;95411.81;;;16.01;80.25
12785;BME280;6456;42.680;23.260;2022-10-23T06:17:13;95372.44;;;15.87;80.83
12785;BME280;6456;42.680;23.260;2022-10-23T06:19:39;95416.94;;;16.15;81.08
12785;BME280;6456;42.680;23.260;2022-10-23T06:22:06;95409.94;;;16.20;82.13
12785;BME280;6456;42.680;23.260;2022-10-23T06:24:33;95409.34;;;16.18;82.62
12785;BME280;6456;42.680;23.260;2022-10-23T06:27:00;95413.28;;;16.27;82.65
12785;BME280;6456;42.680;23.260;2022-10-23T06:29:28;95422.88;;;16.28;83.41
12785;BME280;6456;42.680;23.260;2022-10-23T06:31:55;95423.66;;;16.29;83.34
12785;BME280;6456;42.680;23.260;2022-10-23T06:34:22;95432.56;;;16.34;83.24
12785;BME280;6456;42.680;23.260;2022-10-23T06:36:49;95430.63;;;16.41;83.53
12785;BME280;6456;42.680;23.260;2022-10-23T06:39:16;95413.75;;;16.36;83.55
12785;BME280;6456;42.680;23.260;2022-10-23T06:41:43;95405.31;;;16.27;84.52
12785;BME280;6456;42.680;23.260;2022-10-23T06:44:10;95436.28;;;16.45;84.18
12785;BME280;6456;42.680;23.260;2022-10-23T06:46:43;95417.22;;;16.36;85.10
12785;BME280;6456;42.680;23.260;2022-10-23T06:49:12;95430.41;;;16.43;84.92
12785;BME280;6456;42.680;23.260;2022-10-23T06:51:40;95392.47;;;16.13;85.28
12785;BME280;6456;42.680;23.260;2022-10-23T06:54:09;95435.59;;;16.38;86.00
12785;BME280;6456;42.680;23.260;2022-10-23T06:56:36;95443.00;;;16.47;85.94
12785;BME280;6456;42.680;23.260;2022-10-23T06:59:03;95441.38;;;16.46;85.59
12785;BME280;6456;42.680;23.260;2022-10-23T07:01:32;95381.75;;;16.19;85.56
12785;BME280;6456;42.680;23.260;2022-10-23T07:04:00;95379.22;;;16.24;85.39
12785;BME280;6456;42.680;23.260;2022-10-23T07:06:27;95444.44;;;16.61;85.71
12785;BME280;6456;42.680;23.260;2022-10-23T07:08:54;95446.19;;;16.67;85.09
12785;BME280;6456;42.680;23.260;2022-10-23T07:11:21;95406.00;;;16.34;84.99
12785;BME280;6456;42.680;23.260;2022-10-23T07:13:48;95446.63;;;16.64;85.20
12785;BME280;6456;42.680;23.260;2022-10-23T07:16:16;95433.66;;;16.56;84.33
12785;BME280;6456;42.680;23.260;2022-10-23T07:18:43;95416.44;;;16.47;84.99
12785;BME280;6456;42.680;23.260;2022-10-23T07:21:12;95448.38;;;16.71;84.87
12785;BME280;6456;42.680;23.260;2022-10-23T07:23:39;95386.50;;;16.29;84.17
12785;BME280;6456;42.680;23.260;2022-10-23T07:26:07;95389.63;;;16.37;83.46
12785;BME280;6456;42.680;23.260;2022-10-23T07:28:34;95439.47;;;16.77;83.50
12785;BME280;6456;42.680;23.260;2022-10-23T07:31:05;95389.88;;;16.47;82.23
12785;BME280;6456;42.680;23.260;2022-10-23T07:33:31;95438.69;;;16.88;80.87
12785;BME280;6456;42.680;23.260;2022-10-23T07:35:58;95366.88;;;16.41;81.26
12785;BME280;6456;42.680;23.260;2022-10-23T07:38:27;95391.50;;;16.72;79.36
12785;BME280;6456;42.680;23.260;2022-10-23T07:40:55;95440.72;;;17.09;80.67
12785;BME280;6456;42.680;23.260;2022-10-23T07:43:23;95434.84;;;17.18;78.10
12785;BME280;6456;42.680;23.260;2022-10-23T07:45:51;95441.41;;;17.27;77.22
12785;BME280;6456;42.680;23.260;2022-10-23T07:48:18;95445.00;;;17.33;74.18
12785;BME280;6456;42.680;23.260;2022-10-23T07:50:45;95355.09;;;16.84;73.72
12785;BME280;6456;42.680;23.260;2022-10-23T07:53:17;95425.78;;;17.31;73.91
12785;BME280;6456;42.680;23.260;2022-10-23T07:55:52;95395.41;;;17.15;73.29
12785;BME280;6456;42.680;23.260;2022-10-23T07:58:19;95393.06;;;17.30;74.21
12785;BME280;6456;42.680;23.260;2022-10-23T08:00:56;95437.19;;;17.66;74.37
12785;BME280;6456;42.680;23.260;2022-10-23T08:03:23;95452.69;;;17.69;72.55
12785;BME280;6456;42.680;23.260;2022-10-23T08:05:51;95435.44;;;17.72;72.10
12785;BME280;6456;42.680;23.260;2022-10-23T08:08:18;95457.53;;;17.72;72.43
12785;BME280;6456;42.680;23.260;2022-10-23T08:10:45;95402.84;;;17.42;74.15
12785;BME280;6456;42.680;23.260;2022-10-23T08:13:14;95456.16;;;17.70;72.90
12785;BME280;6456;42.680;23.260;2022-10-23T08:15:41;95437.28;;;17.71;73.85
12785;BME280;6456;42.680;23.260;2022-10-23T08:18:09;95445.34;;;17.76;72.28
12785;BME280;6456;42.680;23.260;2022-10-23T08:20:39;95441.09;;;17.75;73.00
12785;BME280;6456;42.680;23.260;2022-10-23T08:23:06;95432.44;;;17.68;72.66
12785;BME280;6456;42.680;23.260;2022-10-23T08:25:33;95438.06;;;17.83;72.90
12785;BME280;6456;42.680;23.260;2022-10-23T08:28:00;95396.94;;;17.51;72.30
12785;BME280;6456;42.680;23.260;2022-10-23T08:30:29;95406.88;;;17.67;73.25
12785;BME280;6456;42.680;23.260;2022-10-23T08:32:55;95438.81;;;17.96;73.03
12785;BME280;6456;42.680;23.260;2022-10-23T08:35:23;95460.88;;;18.08;76.41
12785;BME280;6456;42.680;23.260;2022-10-23T08:37:49;95449.09;;;18.04;76.13
12785;BME280;6456;42.680;23.260;2022-10-23T08:40:20;95437.00;;;18.13;74.63
12785;BME280;6456;42.680;23.260;2022-10-23T08:42:52;95427.28;;;18.07;75.58
12785;BME280;6456;42.680;23.260;2022-10-23T08:45:30;95453.47;;;18.10;76.99
12785;BME280;6456;42.680;23.260;2022-10-23T08:48:03;95434.34;;;18.13;74.87
12785;BME280;6456;42.680;23.260;2022-10-23T08:50:39;95451.13;;;18.13;74.70
12785;BME280;6456;42.680;23.260;2022-10-23T08:53:13;95445.56;;;18.15;76.38
12785;BME280;6456;42.680;23.260;2022-10-23T08:55:45;95439.19;;;18.16;75.38
12785;BME280;6456;42.680;23.260;2022-10-23T08:58:16;95442.72;;;18.21;75.22
12785;BME280;6456;42.680;23.260;2022-10-23T09:00:46;95436.22;;;18.29;75.44
12785;BME280;6456;42.680;23.260;2022-10-23T09:03:13;95355.53;;;17.83;74.24
12785;BME280;6456;42.680;23.260;2022-10-23T09:05:54;95435.16;;;18.30;74.84
12785;BME280;6456;42.680;23.260;2022-10-23T09:08:31;95398.50;;;18.20;74.57
12785;BME280;6456;42.680;23.260;2022-10-23T09:11:03;95437.75;;;18.53;73.72
12785;BME280;6456;42.680;23.260;2022-10-23T09:13:51;95395.38;;;18.23;71.75
12785;BME280;6456;42.680;23.260;2022-10-23T09:16:27;95427.81;;;18.65;70.85
12785;BME280;6456;42.680;23.260;2022-10-23T09:18:59;95435.06;;;18.70;71.92
12785;BME280;6456;42.680;23.260;2022-10-23T09:21:26;95389.78;;;18.41;72.54
12785;BME280;6456;42.680;23.260;2022-10-23T09:23:53;95432.97;;;18.72;69.93
12785;BME280;6456;42.680;23.260;2022-10-23T09:26:21;95412.28;;;18.62;70.33
12785;BME280;6456;42.680;23.260;2022-10-23T09:28:49;95407.66;;;18.74;70.84
12785;BME280;6456;42.680;23.260;2022-10-23T09:31:17;95418.00;;;18.87;73.14
12785;BME280;6456;42.680;23.260;2022-10-23T09:33:56;95430.94;;;18.95;70.10
12785;BME280;6456;42.680;23.260;2022-10-23T09:36:24;95425.03;;;18.93;69.38
12785;BME280;6456;42.680;23.260;2022-10-23T09:38:55;95425.03;;;18.93;68.06
12785;BME280;6456;42.680;23.260;2022-10-23T09:41:27;95421.22;;;19.06;69.99
12785;BME280;6456;42.680;23.260;2022-10-23T09:44:05;95431.16;;;19.10;67.89
12785;BME280;6456;42.680;23.260;2022-10-23T09:46:42;95427.47;;;19.16;67.06
12785;BME280;6456;42.680;23.260;2022-10-23T09:49:16;95435.56;;;19.21;65.95
12785;BME280;6456;42.680;23.260;2022-10-23T09:51:52;95426.03;;;19.26;65.46
12785;BME280;6456;42.680;23.260;2022-10-23T09:54:20;95424.25;;;19.31;64.79
12785;BME280;6456;42.680;23.260;2022-10-23T09:56:49;95411.69;;;19.32;61.91
12785;BME280;6456;42.680;23.260;2022-10-23T09:59:23;95345.81;;;18.94;63.89
12785;BME280;6456;42.680;23.260;2022-10-23T10:01:52;95359.69;;;19.12;61.33
12785;BME280;6456;42.680;23.260;2022-10-23T10:04:34;95410.38;;;19.51;61.24
12785;BME280;6456;42.680;23.260;2022-10-23T10:07:04;95417.38;;;19.57;62.59
12785;BME280;6456;42.680;23.260;2022-10-23T10:09:31;95361.50;;;19.29;62.18
12785;BME280;6456;42.680;23.260;2022-10-23T10:12:11;95356.53;;;19.37;63.28
12785;BME280;6456;42.680;23.260;2022-10-23T10:14:54;95407.88;;;19.66;63.05
12785;BME280;6456;42.680;23.260;2022-10-23T10:17:32;95407.13;;;19.70;61.09
12785;BME280;6456;42.680;23.260;2022-10-23T10:20:25;95350.56;;;19.52;60.52
12785;BME280;6456;42.680;23.260;2022-10-23T10:23:01;95337.50;;;19.50;59.14
12785;BME280;6456;42.680;23.260;2022-10-23T10:25:35;95391.56;;;19.89;58.85
12785;BME280;6456;42.680;23.260;2022-10-23T10:28:19;95382.25;;;19.92;57.96
12785;BME280;6456;42.680;23.260;2022-10-23T10:30:58;95382.06;;;19.98;57.73
12785;BME280;6456;42.680;23.260;2022-10-23T10:33:31;95393.66;;;20.09;55.04
12785;BME280;6456;42.680;23.260;2022-10-23T10:36:11;95359.06;;;19.97;54.19
12785;BME280;6456;42.680;23.260;2022-10-23T10:38:47;95365.53;;;20.01;53.52
12785;BME280;6456;42.680;23.260;2022-10-23T10:41:38;95367.22;;;20.12;47.59
12785;BME280;6456;42.680;23.260;2022-10-23T10:44:29;95365.09;;;20.14;51.82
12785;BME280;6456;42.680;23.260;2022-10-23T10:47:05;95323.25;;;19.93;52.74
12785;BME280;6456;42.680;23.260;2022-10-23T10:49:41;95366.34;;;20.28;51.81
12785;BME280;6456;42.680;23.260;2022-10-23T10:52:16;95334.56;;;20.05;54.64
12785;BME280;6456;42.680;23.260;2022-10-23T10:54:54;95323.09;;;20.10;53.62
12785;BME280;6456;42.680;23.260;2022-10-23T10:57:30;95346.03;;;20.32;50.72
12785;BME280;6456;42.680;23.260;2022-10-23T11:00:00;95371.25;;;20.41;50.76
12785;BME280;6456;42.680;23.260;2022-10-23T11:02:34;95350.88;;;20.35;47.20
12785;BME280;6456;42.680;23.260;2022-10-23T11:05:13;95350.63;;;20.37;47.90
12785;BME280;6456;42.680;23.260;2022-10-23T11:07:51;95349.66;;;20.48;50.34
12785;BME280;6456;42.680;23.260;2022-10-23T11:10:18;95339.16;;;20.36;49.57
12785;BME280;6456;42.680;23.260;2022-10-23T11:12:46;95358.19;;;20.45;50.54
12785;BME280;6456;42.680;23.260;2022-10-23T11:15:16;95343.81;;;20.51;51.76
12785;BME280;6456;42.680;23.260;2022-10-23T11:17:47;95347.81;;;20.54;51.80
12785;BME280;6456;42.680;23.260;2022-10-23T11:20:23;95334.97;;;20.51;50.97
12785;BME280;6456;42.680;23.260;2022-10-23T11:22:57;95340.69;;;20.64;52.20
12785;BME280;6456;42.680;23.260;2022-10-23T11:25:49;95321.38;;;20.57;49.32
12785;BME280;6456;42.680;23.260;2022-10-23T11:28:31;95346.34;;;20.73;51.57
12785;BME280;6456;42.680;23.260;2022-10-23T11:31:07;95294.31;;;20.49;49.85
12785;BME280;6456;42.680;23.260;2022-10-23T11:33:56;95333.50;;;20.75;50.19
12785;BME280;6456;42.680;23.260;2022-10-23T11:36:40;95339.44;;;20.82;48.66
12785;BME280;6456;42.680;23.260;2022-10-23T11:39:18;95326.09;;;20.87;50.64
12785;BME280;6456;42.680;23.260;2022-10-23T11:41:49;95268.44;;;20.54;50.89
12785;BME280;6456;42.680;23.260;2022-10-23T11:44:38;95312.69;;;20.82;51.87
12785;BME280;6456;42.680;23.260;2022-10-23T11:47:26;95312.69;;;20.82;51.62
12785;BME280;6456;42.680;23.260;2022-10-23T11:50:12;95273.50;;;20.56;52.45
12785;BME280;6456;42.680;23.260;2022-10-23T11:52:51;95309.97;;;20.77;50.97
12785;BME280;6456;42.680;23.260;2022-10-23T11:55:22;95300.13;;;20.82;51.93
12785;BME280;6456;42.680;23.260;2022-10-23T11:58:09;95299.94;;;20.94;53.06
12785;BME280;6456;42.680;23.260;2022-10-23T12:00:50;95299.91;;;20.89;50.87
12785;BME280;6456;42.680;23.260;2022-10-23T12:03:20;95336.28;;;20.90;51.04
12785;BME280;6456;42.680;23.260;2022-10-23T12:05:55;95297.22;;;20.89;50.21
12785;BME280;6456;42.680;23.260;2022-10-23T12:08:26;95258.56;;;20.65;49.99
12785;BME280;6456;42.680;23.260;2022-10-23T12:10:56;95270.38;;;20.69;48.97
12785;BME280;6456;42.680;23.260;2022-10-23T12:13:44;95285.47;;;20.95;51.11
12785;BME280;6456;42.680;23.260;2022-10-23T12:16:11;95295.16;;;21.01;50.37
12785;BME280;6456;42.680;23.260;2022-10-23T12:18:46;95232.94;;;20.69;48.92
12785;BME280;6456;42.680;23.260;2022-10-23T12:21:16;95295.16;;;21.01;48.19
12785;BME280;6456;42.680;23.260;2022-10-23T12:24:21;95276.06;;;20.87;49.07
12785;BME280;6456;42.680;23.260;2022-10-23T12:27:00;95280.13;;;20.95;50.52
12785;BME280;6456;42.680;23.260;2022-10-23T12:29:41;95290.31;;;20.98;50.27
12785;BME280;6456;42.680;23.260;2022-10-23T12:32:24;95258.94;;;20.83;49.90
12785;BME280;6456;42.680;23.260;2022-10-23T12:35:20;95289.28;;;21.04;50.43
12785;BME280;6456;42.680;23.260;2022-10-23T12:38:01;95264.03;;;20.85;49.25
12785;BME280;6456;42.680;23.260;2022-10-23T12:40:29;95274.78;;;20.95;50.08
12785;BME280;6456;42.680;23.260;2022-10-23T12:42:59;95280.66;;;20.97;46.99
12785;BME280;6456;42.680;23.260;2022-10-23T12:45:28;95290.59;;;21.01;49.17
12785;BME280;6456;42.680;23.260;2022-10-23T12:47:56;95282.78;;;20.90;50.11
12785;BME280;6456;42.680;23.260;2022-10-23T12:50:25;95288.97;;;20.95;49.79
12785;BME280;6456;42.680;23.260;2022-10-23T12:52:54;95264.47;;;20.67;50.76
12785;BME280;6456;42.680;23.260;2022-10-23T12:55:25;95248.97;;;20.64;51.22
12785;BME280;6456;42.680;23.260;2022-10-23T12:57:53;95261.00;;;20.66;50.59
12785;BME280;6456;42.680;23.260;2022-10-23T13:00:23;95241.75;;;20.69;50.13
12785;BME280;6456;42.680;23.260;2022-10-23T13:03:00;95187.31;;;20.33;49.76
12785;BME280;6456;42.680;23.260;2022-10-23T13:05:28;95257.00;;;20.69;50.21
12785;BME280;6456;42.680;23.260;2022-10-23T13:07:59;95240.97;;;20.69;49.62
12785;BME280;6456;42.680;23.260;2022-10-23T13:10:53;95278.00;;;20.97;48.83
12785;BME280;6456;42.680;23.260;2022-10-23T13:13:55;95298.97;;;21.10;50.03
12785;BME280;6456;42.680;23.260;2022-10-23T13:16:25;95294.34;;;21.00;50.28
12785;BME280;6456;42.680;23.260;2022-10-23T13:18:52;95298.41;;;21.08;50.09
12785;BME280;6456;42.680;23.260;2022-10-23T13:21:20;95288.53;;;21.14;50.12
12785;BME280;6456;42.680;23.260;2022-10-23T13:23:48;95294.34;;;21.00;51.04
12785;BME280;6456;42.680;23.260;2022-10-23T13:26:29;95292.00;;;21.09;49.52